Time;durP1;ratioP1;P1;durP2;ratioP2;P2;SDS_P1;SDS_P2;PMS_P1;PMS_P2;Temp;Humidity;BMP_temperature;BMP_pressure;BME280_temperature;BME280_humidity;BME280_pressure;Samples;Min_cycle;Max_cycle;Signal;HPM_P1;HPM_P2
2023/09/30 00:01:21;;;;;;;10.27;3.22;;;;;;;22.36;52.56;102537.38;5010257;28;20014;-71
2023/09/30 00:03:47;;;;;;;7.53;3.10;;;;;;;22.66;51.73;102547.94;5007614;28;20125;-71
2023/09/30 00:06:12;;;;;;;5.80;2.45;;;;;;;22.45;52.82;102545.06;5008891;28;20109;-71
2023/09/30 00:08:39;;;;;;;7.28;3.50;;;;;;;22.55;52.35;102544.78;5006723;28;20148;-71
2023/09/30 00:11:05;;;;;;;9.57;3.30;;;;;;;22.13;53.48;102544.31;5009004;28;20421;-71
2023/09/30 00:13:31;;;;;;;8.77;3.38;;;;;;;22.01;53.50;102534.03;5015868;28;20018;-72
2023/09/30 00:15:57;;;;;;;4.45;2.70;;;;;;;22.14;53.45;102543.34;5030406;28;20029;-72
2023/09/30 00:18:22;;;;;;;10.13;2.70;;;;;;;22.04;54.47;102544.59;5014219;28;20025;-72
2023/09/30 00:20:48;;;;;;;4.07;2.80;;;;;;;21.84;54.59;102548.75;5026930;28;20022;-72
2023/09/30 00:23:13;;;;;;;9.73;3.30;;;;;;;22.10;53.90;102551.50;5012536;28;20102;-72
2023/09/30 00:25:39;;;;;;;9.77;3.60;;;;;;;22.41;53.45;102553.19;5028018;28;20030;-72
2023/09/30 00:28:04;;;;;;;5.38;2.88;;;;;;;22.25;53.54;102552.81;5026557;28;20036;-72
2023/09/30 00:30:30;;;;;;;6.28;3.15;;;;;;;22.67;52.73;102563.00;5027067;28;20195;-72
2023/09/30 00:32:56;;;;;;;4.63;2.70;;;;;;;23.11;51.38;102555.25;5031082;28;20026;-72
2023/09/30 00:35:21;;;;;;;8.50;3.60;;;;;;;23.10;50.75;102542.84;5014699;28;20040;-71
2023/09/30 00:37:46;;;;;;;5.22;3.50;;;;;;;23.01;51.03;102543.16;5010170;28;20026;-71
2023/09/30 00:40:13;;;;;;;8.10;3.05;;;;;;;22.37;52.58;102547.13;5026531;28;20033;-71
2023/09/30 00:42:39;;;;;;;6.78;3.40;;;;;;;22.26;52.88;102562.56;5031020;28;20025;-71
2023/09/30 00:45:05;;;;;;;8.57;3.50;;;;;;;22.07;53.93;102562.25;5009653;28;20030;-71
2023/09/30 00:47:31;;;;;;;8.43;3.25;;;;;;;22.09;53.31;102569.28;5030834;28;20030;-71
2023/09/30 00:49:57;;;;;;;6.82;2.85;;;;;;;21.88;53.82;102581.44;5029575;28;20167;-72
2023/09/30 00:52:23;;;;;;;6.80;2.85;;;;;;;22.23;53.08;102575.94;5011683;28;20560;-71
2023/09/30 00:54:49;;;;;;;8.80;2.70;;;;;;;22.40;52.31;102573.66;5030679;28;20048;-71
2023/09/30 00:57:15;;;;;;;8.43;3.40;;;;;;;22.63;51.68;102564.91;5012861;28;20033;-71
2023/09/30 00:59:41;;;;;;;7.60;3.00;;;;;;;22.22;52.99;102574.22;5030566;28;20052;-71
2023/09/30 01:02:07;;;;;;;11.25;3.33;;;;;;;22.29;52.84;102573.09;5030477;28;20034;-72
2023/09/30 01:04:33;;;;;;;7.25;2.97;;;;;;;21.92;53.55;102582.22;5021915;28;20537;-72
2023/09/30 01:06:58;;;;;;;8.90;4.40;;;;;;;22.12;53.24;102597.56;5011594;28;20105;-71
2023/09/30 01:09:24;;;;;;;6.28;3.45;;;;;;;22.25;52.68;102606.06;5010773;28;20029;-72
2023/09/30 01:11:52;;;;;;;6.47;3.38;;;;;;;22.57;51.92;102598.88;5012873;28;20037;-72
2023/09/30 01:14:28;;;;;;;5.43;3.22;;;;;;;22.12;53.05;102594.91;5029560;28;20506;-72
2023/09/30 01:16:54;;;;;;;8.15;3.80;;;;;;;22.20;53.15;102590.22;5025597;28;20091;-72
2023/09/30 01:19:19;;;;;;;6.43;3.60;;;;;;;22.06;53.55;102590.66;4998596;28;20611;-71
2023/09/30 01:21:48;;;;;;;10.85;5.25;;;;;;;22.31;52.67;102587.22;5028932;28;20441;-72
2023/09/30 01:24:14;;;;;;;9.93;3.10;;;;;;;22.37;52.66;102584.41;5011938;28;20084;-72
2023/09/30 01:26:40;;;;;;;5.75;3.15;;;;;;;22.40;52.32;102584.31;5011926;28;20017;-71
2023/09/30 01:29:05;;;;;;;11.60;3.45;;;;;;;22.31;52.87;102579.22;5030325;28;20036;-72
2023/09/30 01:31:31;;;;;;;6.88;3.25;;;;;;;21.86;53.91;102578.81;5029168;28;20033;-71
2023/09/30 01:33:56;;;;;;;8.85;3.25;;;;;;;22.11;53.34;102572.75;5029740;28;20110;-71
2023/09/30 01:36:22;;;;;;;7.95;3.83;;;;;;;22.04;53.27;102581.84;5029769;28;20117;-72
2023/09/30 01:38:47;;;;;;;7.10;3.60;;;;;;;22.06;52.94;102590.66;5013489;28;20024;-72
2023/09/30 01:41:12;;;;;;;10.55;3.85;;;;;;;21.64;54.57;102589.25;5029616;28;20540;-72
2023/09/30 01:43:38;;;;;;;6.72;3.78;;;;;;;21.85;54.05;102581.53;5024181;28;20040;-71
2023/09/30 01:46:05;;;;;;;8.35;4.00;;;;;;;21.77;54.13;102584.41;5024687;28;20030;-72
2023/09/30 01:48:30;;;;;;;10.13;4.03;;;;;;;22.01;53.61;102576.63;5024189;28;20032;-71
2023/09/30 01:50:56;;;;;;;7.55;3.80;;;;;;;22.06;53.59;102576.47;5029347;28;20034;-70
2023/09/30 01:53:21;;;;;;;7.47;3.50;;;;;;;22.43;52.46;102589.53;5011459;28;20029;-70
2023/09/30 01:55:47;;;;;;;9.73;4.50;;;;;;;22.12;53.64;102590.47;5028869;28;20024;-71
2023/09/30 01:58:13;;;;;;;9.30;4.00;;;;;;;22.15;53.55;102587.72;5029678;28;20469;-71
2023/09/30 02:00:38;;;;;;;11.98;4.40;;;;;;;22.15;53.58;102590.38;5012125;28;20148;-70
2023/09/30 02:03:04;;;;;;;5.72;3.78;;;;;;;22.17;53.81;102593.88;5028651;28;20024;-71
2023/09/30 02:05:29;;;;;;;8.50;4.30;;;;;;;22.21;53.58;102589.31;5011480;28;20070;-70
2023/09/30 02:07:54;;;;;;;8.52;5.00;;;;;;;22.33;53.49;102590.72;5029433;28;20029;-71
2023/09/30 02:10:20;;;;;;;7.88;4.82;;;;;;;21.97;54.29;102597.16;5012031;28;20052;-71
2023/09/30 02:12:46;;;;;;;10.65;4.47;;;;;;;22.17;54.17;102604.53;5029756;28;20118;-73
2023/09/30 02:15:12;;;;;;;9.02;4.25;;;;;;;22.33;53.40;102594.25;5027570;28;20032;-71
2023/09/30 02:17:38;;;;;;;8.23;4.50;;;;;;;22.13;54.20;102581.59;5011935;28;20517;-71
2023/09/30 02:20:07;;;;;;;8.02;4.47;;;;;;;22.47;53.25;102585.84;5029923;28;20147;-70
2023/09/30 02:22:33;;;;;;;14.05;5.60;;;;;;;22.33;54.01;102574.75;5028894;28;20122;-71
2023/09/30 02:24:58;;;;;;;15.38;4.95;;;;;;;21.84;54.87;102559.38;4991647;28;20049;-71
2023/09/30 02:27:23;;;;;;;11.75;5.00;;;;;;;22.55;53.03;102566.94;4991968;28;20057;-70
2023/09/30 02:29:49;;;;;;;12.68;5.10;;;;;;;22.71;52.96;102588.63;4994773;28;20029;-71
2023/09/30 02:32:14;;;;;;;12.07;4.90;;;;;;;22.50;53.56;102579.53;4991997;28;20026;-70
2023/09/30 02:34:39;;;;;;;12.65;5.20;;;;;;;22.80;52.88;102566.97;5008899;28;20496;-70
2023/09/30 02:37:05;;;;;;;11.05;5.13;;;;;;;22.44;54.04;102569.97;5009152;28;20033;-71
2023/09/30 02:39:30;;;;;;;11.07;5.47;;;;;;;22.42;54.24;102566.50;5008511;28;20040;-70
2023/09/30 02:41:56;;;;;;;11.82;4.93;;;;;;;22.45;53.79;102576.16;5008977;28;20040;-71
2023/09/30 02:44:22;;;;;;;14.18;6.43;;;;;;;21.99;55.45;102563.34;4991238;28;20060;-70
2023/09/30 02:46:47;;;;;;;10.77;5.45;;;;;;;22.09;54.85;102563.97;4992552;28;20359;-70
2023/09/30 02:49:12;;;;;;;12.57;5.10;;;;;;;22.46;54.44;102573.47;5008531;28;20026;-71
2023/09/30 02:51:38;;;;;;;12.63;5.07;;;;;;;21.92;55.85;102582.22;5008421;28;20065;-71
2023/09/30 02:54:04;;;;;;;13.80;5.43;;;;;;;22.13;55.65;102578.91;5008341;28;20049;-70
2023/09/30 02:56:30;;;;;;;16.08;6.28;;;;;;;22.47;54.70;102580.50;5008870;28;20026;-71
2023/09/30 02:58:56;;;;;;;17.73;6.18;;;;;;;22.20;55.50;102575.13;5007900;28;20037;-71
2023/09/30 03:01:21;;;;;;;9.75;5.20;;;;;;;22.43;54.97;102573.53;5008007;28;20480;-70
2023/09/30 03:03:47;;;;;;;12.63;5.47;;;;;;;22.58;53.97;102560.66;5007996;28;20121;-70
2023/09/30 03:06:12;;;;;;;13.88;5.90;;;;;;;22.28;55.06;102558.03;5007918;28;20482;-71
2023/09/30 03:08:38;;;;;;;15.32;5.70;;;;;;;22.53;54.46;102564.34;5011340;28;20486;-71
2023/09/30 03:11:04;;;;;;;8.55;5.20;;;;;;;22.67;54.40;102571.00;5008354;28;20025;-70
2023/09/30 03:13:30;;;;;;;16.15;6.50;;;;;;;22.46;54.87;102568.13;5009001;28;20192;-71
2023/09/30 03:15:56;;;;;;;11.07;5.38;;;;;;;22.77;54.16;102572.41;4998260;28;20571;-71
2023/09/30 03:18:26;;;;;;;14.27;5.88;;;;;;;23.02;53.18;102568.91;5007481;28;20026;-71
2023/09/30 03:20:56;;;;;;;13.68;6.25;;;;;;;22.87;53.90;102570.31;5008762;28;20022;-71
2023/09/30 03:23:22;;;;;;;13.85;6.10;;;;;;;22.73;54.43;102570.78;4995946;28;20498;-70
2023/09/30 03:25:48;;;;;;;11.70;5.72;;;;;;;22.55;54.84;102566.09;4998945;28;20027;-71
2023/09/30 03:28:14;;;;;;;11.30;5.72;;;;;;;23.00;53.80;102568.09;4990033;28;20023;-71
2023/09/30 03:30:40;;;;;;;15.82;6.57;;;;;;;23.19;52.84;102568.31;4989021;28;20025;-71
2023/09/30 03:33:05;;;;;;;15.93;7.55;;;;;;;23.27;52.60;102573.41;4998674;28;20478;-70
2023/09/30 03:35:32;;;;;;;12.25;6.75;;;;;;;23.20;52.90;102573.63;4992966;28;20033;-71
2023/09/30 03:37:58;;;;;;;15.48;6.57;;;;;;;23.24;52.79;102570.84;5018164;28;20028;-73
2023/09/30 03:40:27;;;;;;;12.95;6.35;;;;;;;22.73;54.34;102564.59;5027518;28;20036;-73
2023/09/30 03:42:53;;;;;;;14.15;7.57;;;;;;;22.27;55.69;102572.25;5009891;28;20083;-73
2023/09/30 03:45:19;;;;;;;13.52;6.55;;;;;;;22.42;55.21;102571.81;5025976;28;20490;-70
2023/09/30 03:47:45;;;;;;;13.55;6.57;;;;;;;22.97;54.15;102571.75;5013512;28;20018;-71
2023/09/30 03:50:14;;;;;;;17.08;7.07;;;;;;;23.13;53.11;102565.91;4992232;28;20038;-71
2023/09/30 03:52:43;;;;;;;13.68;7.03;;;;;;;22.67;54.55;102565.69;4993633;28;20039;-70
2023/09/30 03:55:11;;;;;;;10.68;6.72;;;;;;;22.58;54.97;102563.31;5008044;28;20037;-71
2023/09/30 03:57:37;;;;;;;14.55;7.03;;;;;;;22.82;54.52;102567.81;5021596;28;20474;-71
2023/09/30 04:00:06;;;;;;;15.57;6.57;;;;;;;23.19;53.13;102568.31;5020359;28;20037;-71
2023/09/30 04:02:35;;;;;;;14.93;6.88;;;;;;;22.78;54.26;102562.63;5013276;28;20111;-71
2023/09/30 04:05:05;;;;;;;15.75;6.57;;;;;;;22.41;55.19;102563.84;5030525;28;20022;-71
2023/09/30 04:07:31;;;;;;;12.32;6.57;;;;;;;22.86;54.19;102572.13;5031092;28;20033;-71
2023/09/30 04:09:56;;;;;;;12.00;6.60;;;;;;;22.48;54.92;102576.94;5023439;28;20037;-71
2023/09/30 04:12:25;;;;;;;12.13;6.18;;;;;;;22.01;57.52;102566.00;5011712;28;20030;-71
2023/09/30 04:14:52;;;;;;;13.60;6.78;;;;;;;23.00;54.01;102557.44;5013051;28;20453;-70
2023/09/30 04:17:17;;;;;;;10.73;6.45;;;;;;;22.47;55.53;102567.19;5022085;28;20028;-71
2023/09/30 04:19:43;;;;;;;17.35;7.13;;;;;;;22.72;54.79;102563.72;5027228;28;20022;-70
2023/09/30 04:22:08;;;;;;;15.68;7.72;;;;;;;22.40;56.19;102563.00;5010488;28;20026;-71
2023/09/30 04:24:34;;;;;;;13.88;7.60;;;;;;;22.32;55.83;102570.34;5022995;28;20046;-71
2023/09/30 04:27:03;;;;;;;14.40;5.55;;;;;;;22.41;55.18;102578.06;5011251;28;20076;-70
2023/09/30 04:29:29;;;;;;;11.70;6.68;;;;;;;23.01;53.87;102577.81;5008216;28;20029;-71
2023/09/30 04:31:58;;;;;;;14.57;7.28;;;;;;;22.50;55.20;102591.09;5012066;28;20038;-71
2023/09/30 04:34:23;;;;;;;12.55;6.35;;;;;;;22.42;55.92;102582.47;5020710;28;20034;-71
2023/09/30 04:36:49;;;;;;;14.45;6.45;;;;;;;22.46;55.62;102585.91;4994213;28;20040;-71
2023/09/30 04:39:15;;;;;;;13.15;6.68;;;;;;;22.27;55.54;102585.56;4993799;28;20021;-71
2023/09/30 04:41:41;;;;;;;15.27;6.88;;;;;;;22.71;55.14;102588.63;5009034;28;20139;-71
2023/09/30 04:44:09;;;;;;;15.23;7.50;;;;;;;22.47;56.28;102585.84;5025183;28;20081;-71
2023/09/30 04:46:36;;;;;;;16.58;7.75;;;;;;;22.28;56.14;102584.66;5010100;28;20441;-70
2023/09/30 04:49:02;;;;;;;14.73;6.93;;;;;;;22.33;55.92;102588.06;5026423;28;20474;-71
2023/09/30 04:51:27;;;;;;;11.55;6.72;;;;;;;22.28;56.02;102595.31;5005107;28;20037;-71
2023/09/30 04:53:54;;;;;;;13.05;6.50;;;;;;;22.54;55.76;102597.16;5009318;28;20030;-71
2023/09/30 04:56:20;;;;;;;10.50;5.63;;;;;;;22.91;54.44;102589.75;5008880;28;20033;-73
2023/09/30 04:58:46;;;;;;;12.57;6.18;;;;;;;22.63;54.14;102590.69;4989740;28;20042;-73
2023/09/30 05:01:12;;;;;;;18.42;7.50;;;;;;;23.03;53.60;102584.00;4997446;28;20107;-71
2023/09/30 05:03:37;;;;;;;14.52;6.90;;;;;;;22.41;54.84;102593.16;4991458;28;20038;-73
2023/09/30 05:06:03;;;;;;;14.50;7.65;;;;;;;22.85;53.87;102597.03;4990361;28;20043;-73
2023/09/30 05:08:29;;;;;;;14.07;7.70;;;;;;;22.81;53.51;102591.88;4994088;28;20022;-73
2023/09/30 05:10:55;;;;;;;13.65;6.25;;;;;;;22.99;53.31;102587.69;5004905;28;20471;-73
2023/09/30 05:13:23;;;;;;;13.95;6.28;;;;;;;22.62;54.12;102599.59;5006922;28;20076;-73
2023/09/30 05:15:49;;;;;;;15.98;6.75;;;;;;;22.56;54.26;102594.44;4997894;28;20099;-73
2023/09/30 05:18:15;;;;;;;11.27;6.45;;;;;;;22.57;54.58;102593.53;5009511;28;20409;-73
2023/09/30 05:20:40;;;;;;;15.48;7.25;;;;;;;22.62;54.03;102604.94;5009007;28;20026;-70
2023/09/30 05:23:07;;;;;;;16.92;7.63;;;;;;;22.68;54.21;102596.72;4994428;28;20129;-71
2023/09/30 05:25:32;;;;;;;14.13;6.97;;;;;;;23.04;53.36;102605.25;5010291;28;20053;-71
2023/09/30 05:27:57;;;;;;;14.68;6.43;;;;;;;22.62;53.67;102608.44;5027372;28;20633;-71
2023/09/30 05:30:23;;;;;;;15.65;6.40;;;;;;;22.48;54.57;102595.59;5027079;28;20033;-71
2023/09/30 05:32:52;;;;;;;13.45;7.15;;;;;;;22.66;53.61;102593.25;5001352;28;20121;-71
2023/09/30 05:35:17;;;;;;;13.05;6.95;;;;;;;22.26;54.08;102591.84;5030375;28;20116;-72
2023/09/30 05:37:45;;;;;;;15.18;6.82;;;;;;;21.99;54.28;102605.06;5029098;28;20957;-71
2023/09/30 05:40:21;;;;;;;13.82;6.80;;;;;;;21.97;55.04;102596.28;5010538;28;20467;-72
2023/09/30 05:42:48;;;;;;;15.48;7.72;;;;;;;21.88;54.98;102604.53;5029066;28;20087;-73
2023/09/30 05:45:13;;;;;;;12.23;6.78;;;;;;;22.49;52.82;102605.31;5028726;28;20025;-72
2023/09/30 05:47:40;;;;;;;15.82;7.15;;;;;;;22.15;53.88;102601.03;5012662;28;20036;-72
2023/09/30 05:50:07;;;;;;;14.93;7.25;;;;;;;21.97;54.26;102606.94;5012804;28;20075;-72
2023/09/30 05:52:33;;;;;;;15.05;7.22;;;;;;;21.40;56.14;102617.38;5027540;28;20559;-72
2023/09/30 05:55:00;;;;;;;13.55;7.13;;;;;;;21.68;55.18;102613.97;5030537;28;20040;-72
2023/09/30 05:57:26;;;;;;;15.23;8.13;;;;;;;21.79;55.26;102614.53;5009149;28;20231;-72
2023/09/30 05:59:52;;;;;;;15.07;8.18;;;;;;;21.38;56.26;102611.22;5014961;28;20086;-73
2023/09/30 06:02:17;;;;;;;14.30;7.97;;;;;;;22.14;54.36;102620.56;5008961;28;20028;-72
2023/09/30 06:04:42;;;;;;;14.38;7.72;;;;;;;21.38;57.14;102613.00;4993931;28;20037;-72
2023/09/30 06:07:08;;;;;;;14.10;8.10;;;;;;;21.41;56.30;102611.13;4993764;28;20150;-72
2023/09/30 06:09:34;;;;;;;12.95;7.63;;;;;;;21.48;56.62;102599.41;5019358;28;20469;-72
2023/09/30 06:12:03;;;;;;;14.65;7.18;;;;;;;21.62;55.74;102600.84;5023415;28;20489;-72
2023/09/30 06:14:31;;;;;;;15.02;8.32;;;;;;;21.40;55.88;102605.88;5026369;28;20025;-72
2023/09/30 06:16:57;;;;;;;13.68;7.68;;;;;;;22.06;54.65;102611.09;5019982;28;21830;-71
2023/09/30 06:19:23;;;;;;;16.55;8.30;;;;;;;21.88;55.24;102618.69;5010997;28;20048;-72
2023/09/30 06:21:50;;;;;;;14.90;7.90;;;;;;;22.03;54.54;102614.72;5007980;28;20037;-73
2023/09/30 06:24:15;;;;;;;19.33;8.60;;;;;;;22.33;53.56;102601.38;5008328;28;20054;-72
2023/09/30 06:26:41;;;;;;;15.75;8.07;;;;;;;22.39;53.52;102617.19;5011622;28;20041;-72
2023/09/30 06:29:06;;;;;;;17.63;8.98;;;;;;;22.34;53.94;102627.13;5011356;28;20473;-72
2023/09/30 06:31:33;;;;;;;19.60;10.50;;;;;;;21.83;55.97;102645.47;5012158;28;20112;-72
2023/09/30 06:34:00;;;;;;;19.90;11.10;;;;;;;21.86;55.87;102648.03;5029123;28;20057;-72
2023/09/30 06:36:25;;;;;;;24.17;11.25;;;;;;;21.48;56.94;102657.94;5028290;28;20437;-71
2023/09/30 06:38:52;;;;;;;19.50;10.75;;;;;;;21.91;56.01;102649.69;5028348;28;20197;-72
2023/09/30 06:41:18;;;;;;;15.90;9.30;;;;;;;21.10;59.34;102662.50;5018968;28;20037;-71
2023/09/30 06:43:43;;;;;;;20.08;10.77;;;;;;;22.19;56.45;102650.63;5004927;28;20037;-72
2023/09/30 06:46:09;;;;;;;22.95;11.27;;;;;;;22.24;55.46;102652.25;5027672;28;20056;-73
2023/09/30 06:48:40;;;;;;;19.30;10.30;;;;;;;22.46;55.51;102658.72;5029035;28;20037;-73
2023/09/30 06:51:05;;;;;;;18.75;11.07;;;;;;;22.84;53.93;102656.59;5011559;28;20032;-73
2023/09/30 06:53:31;;;;;;;21.75;10.77;;;;;;;22.93;54.16;102657.19;5027761;28;20489;-71
2023/09/30 06:55:56;;;;;;;22.45;11.45;;;;;;;22.65;55.67;102663.44;5020239;28;20501;-72
2023/09/30 06:58:22;;;;;;;19.45;10.50;;;;;;;21.61;58.25;102670.91;5012100;28;20061;-72
2023/09/30 07:00:55;;;;;;;20.85;11.52;;;;;;;22.36;57.02;102673.22;5009039;28;20026;-72
2023/09/30 07:03:21;;;;;;;22.58;11.20;;;;;;;23.04;54.72;102676.41;4991845;28;20030;-72
2023/09/30 07:05:49;;;;;;;24.73;12.38;;;;;;;22.62;56.83;102671.53;5018701;28;20438;-72
2023/09/30 07:08:16;;;;;;;22.20;11.75;;;;;;;22.81;56.02;102675.34;5026546;28;20120;-73
2023/09/30 07:10:42;;;;;;;24.75;12.18;;;;;;;22.10;58.66;102688.16;5009321;28;20071;-73
2023/09/30 07:13:07;;;;;;;23.67;11.65;;;;;;;22.15;58.90;102690.72;5027291;28;20060;-73
2023/09/30 07:15:33;;;;;;;27.55;12.98;;;;;;;22.56;58.10;102690.38;5029328;28;20460;-73
2023/09/30 07:17:58;;;;;;;25.58;12.70;;;;;;;22.71;57.14;102689.91;5010489;28;20107;-73
2023/09/30 07:20:24;;;;;;;28.05;13.10;;;;;;;22.90;57.28;102689.31;5028421;28;20447;-73
2023/09/30 07:22:49;;;;;;;27.23;12.48;;;;;;;23.18;55.98;102689.31;5032199;28;20025;-73
2023/09/30 07:25:16;;;;;;;28.08;12.88;;;;;;;22.91;57.17;102691.91;5028556;28;20038;-73
2023/09/30 07:27:43;;;;;;;28.10;13.10;;;;;;;23.02;56.44;102705.75;5013595;28;20401;-73
2023/09/30 07:30:11;;;;;;;22.77;12.73;;;;;;;23.06;55.40;102706.53;5014915;28;20034;-72
2023/09/30 07:32:37;;;;;;;21.27;11.23;;;;;;;23.18;54.59;102705.31;5011687;28;20036;-72
2023/09/30 07:35:03;;;;;;;24.27;11.93;;;;;;;23.84;53.40;102705.63;4997851;28;20041;-72
2023/09/30 07:37:28;;;;;;;22.52;11.68;;;;;;;23.62;53.75;102704.69;5015849;28;20040;-72
2023/09/30 07:39:54;;;;;;;20.83;11.60;;;;;;;24.24;52.63;102702.44;5013263;28;20125;-72
2023/09/30 07:42:19;;;;;;;22.02;11.75;;;;;;;23.11;55.84;102709.94;5031371;28;20065;-71
2023/09/30 07:44:45;;;;;;;23.05;11.85;;;;;;;23.23;57.02;102705.13;5032492;28;20037;-72
2023/09/30 07:47:10;;;;;;;24.40;11.13;;;;;;;22.60;58.21;102697.34;5031254;28;20565;-71
2023/09/30 07:49:37;;;;;;;19.98;10.52;;;;;;;22.48;58.17;102694.16;5030485;28;20025;-71
2023/09/30 07:52:03;;;;;;;23.70;10.43;;;;;;;23.11;55.93;102703.69;5014486;28;20083;-74
2023/09/30 07:54:29;;;;;;;19.77;10.18;;;;;;;22.27;59.90;102701.00;5022730;28;20036;-72
2023/09/30 07:56:55;;;;;;;19.80;9.82;;;;;;;22.86;58.02;102694.75;5012999;28;20029;-72
2023/09/30 07:59:20;;;;;;;22.23;10.05;;;;;;;23.17;55.29;102693.75;5011438;28;20568;-73
2023/09/30 08:01:48;;;;;;;18.10;9.23;;;;;;;24.12;53.05;102680.59;5029775;28;20037;-72
2023/09/30 08:04:13;;;;;;;20.08;9.95;;;;;;;22.90;56.35;102678.63;5032490;28;20040;-72
2023/09/30 08:06:39;;;;;;;15.18;8.75;;;;;;;23.59;55.56;102668.28;5014643;28;20397;-72
2023/09/30 08:09:09;;;;;;;16.50;9.18;;;;;;;23.26;56.55;102670.34;5031395;28;20033;-72
2023/09/30 08:11:36;;;;;;;22.55;9.95;;;;;;;23.15;56.34;102663.59;5032892;28;20448;-72
2023/09/30 08:14:06;;;;;;;22.15;11.00;;;;;;;22.91;57.37;102672.38;5030169;28;20036;-72
2023/09/30 08:16:35;;;;;;;25.40;10.20;;;;;;;24.03;54.55;102657.78;5032863;28;20061;-72
2023/09/30 08:19:01;;;;;;;19.20;9.40;;;;;;;23.32;56.68;102671.00;5013742;28;20501;-72
2023/09/30 08:21:26;;;;;;;16.95;8.32;;;;;;;22.65;58.18;102674.09;5031291;28;20128;-72
2023/09/30 08:23:52;;;;;;;19.77;9.82;;;;;;;23.06;58.33;102684.34;5029643;28;20073;-72
2023/09/30 08:26:17;;;;;;;23.40;9.88;;;;;;;23.42;56.61;102684.03;5014939;28;20065;-72
2023/09/30 08:28:42;;;;;;;13.48;8.60;;;;;;;23.47;56.02;102666.94;5014072;28;20175;-72
2023/09/30 08:31:09;;;;;;;20.95;9.90;;;;;;;24.48;53.19;102661.41;5014200;28;20029;-72
2023/09/30 08:33:35;;;;;;;18.25;9.15;;;;;;;24.38;53.30;102674.22;5012250;28;20025;-72
2023/09/30 08:36:07;;;;;;;18.13;9.18;;;;;;;23.27;57.03;102672.94;5013522;28;20048;-72
2023/09/30 08:38:35;;;;;;;17.30;9.13;;;;;;;24.15;54.12;102671.59;5014621;28;20037;-72
2023/09/30 08:41:02;;;;;;;14.98;8.43;;;;;;;24.49;52.22;102665.78;5029241;28;20123;-72
2023/09/30 08:43:30;;;;;;;19.27;7.63;;;;;;;24.86;52.65;102683.03;5013690;28;20092;-72
2023/09/30 08:45:56;;;;;;;17.00;7.80;;;;;;;24.60;52.13;102684.06;5014016;28;20044;-73
2023/09/30 08:48:23;;;;;;;15.00;7.25;;;;;;;24.42;52.38;102693.69;5012826;28;20041;-72
2023/09/30 08:50:52;;;;;;;16.08;6.20;;;;;;;24.09;53.59;102702.09;5031842;28;20033;-73
2023/09/30 08:53:19;;;;;;;13.63;6.82;;;;;;;24.45;51.81;102706.94;5030765;28;20481;-72
2023/09/30 08:55:46;;;;;;;14.85;6.47;;;;;;;25.04;50.82;102715.31;5031267;28;20529;-72
2023/09/30 08:58:15;;;;;;;18.83;6.85;;;;;;;25.05;50.70;102722.41;5012826;28;20478;-72
2023/09/30 09:00:40;;;;;;;9.27;5.43;;;;;;;25.28;50.33;102725.91;5030982;28;20021;-71
2023/09/30 09:03:07;;;;;;;11.02;5.68;;;;;;;26.17;48.62;102722.03;5012854;28;20043;-71
2023/09/30 09:05:33;;;;;;;9.77;5.22;;;;;;;24.55;50.57;102724.34;5031963;28;20025;-71
2023/09/30 09:07:59;;;;;;;15.05;4.65;;;;;;;25.40;49.60;102734.31;5012759;28;20397;-71
2023/09/30 09:10:24;;;;;;;10.77;4.72;;;;;;;24.14;50.46;102744.63;5028142;28;20485;-71
2023/09/30 09:12:58;;;;;;;9.88;3.97;;;;;;;24.56;50.67;102747.50;5009828;28;20107;-71
2023/09/30 09:15:30;;;;;;;10.85;3.95;;;;;;;25.56;48.69;102761.28;5012969;28;20632;-71
2023/09/30 09:17:56;;;;;;;;;;;;;;;26.37;45.77;102763.94;5022647;28;20156;-71
2023/09/30 09:20:25;;;;;;;11.93;4.10;;;;;;;26.21;45.91;102758.44;5023333;28;20346;-71
2023/09/30 09:22:54;;;;;;;9.40;2.97;;;;;;;24.96;47.38;102749.53;5011223;28;20083;-71
2023/09/30 09:25:22;;;;;;;6.75;2.90;;;;;;;24.90;48.24;102751.50;5020206;28;20095;-71
2023/09/30 09:27:48;;;;;;;5.88;3.00;;;;;;;26.38;45.99;102751.44;5013629;28;20032;-71
2023/09/30 09:30:21;;;;;;;12.05;3.53;;;;;;;26.81;45.35;102745.84;5031306;28;20030;-71
2023/09/30 09:33:07;;;;;;;7.93;3.17;;;;;;;25.89;46.69;102749.16;5012251;28;20505;-71
2023/09/30 09:35:34;;;;;;;7.30;3.13;;;;;;;26.43;44.68;102757.44;5009590;28;20029;-70
2023/09/30 09:38:04;;;;;;;7.88;2.85;;;;;;;26.06;45.25;102749.31;5010062;28;20029;-71
2023/09/30 09:40:32;;;;;;;8.15;3.03;;;;;;;26.94;44.35;102756.84;5026139;28;20026;-70
2023/09/30 09:42:59;;;;;;;6.28;2.90;;;;;;;26.94;43.51;102751.47;5027888;28;20025;-73
2023/09/30 09:45:26;;;;;;;8.43;2.70;;;;;;;25.84;44.40;102749.38;5013229;28;20047;-73
2023/09/30 09:47:54;;;;;;;8.68;2.55;;;;;;;25.72;44.73;102749.94;5030841;28;20025;-73
2023/09/30 09:50:21;;;;;;;4.25;2.10;;;;;;;25.92;43.65;102746.34;5011906;28;20378;-72
2023/09/30 09:52:52;;;;;;;5.53;2.80;;;;;;;25.61;44.29;102754.84;4992470;28;20124;-73
2023/09/30 09:55:19;;;;;;;11.18;2.38;;;;;;;25.47;44.19;102761.69;5012011;28;20116;-73
2023/09/30 09:57:45;;;;;;;3.38;1.80;;;;;;;25.83;43.47;102758.34;5013219;28;20385;-73
2023/09/30 10:00:18;;;;;;;6.05;2.40;;;;;;;25.38;45.84;102754.91;5010109;28;20080;-72
2023/09/30 10:02:45;;;;;;;10.93;2.65;;;;;;;26.24;44.56;102742.22;5028808;28;20029;-73
2023/09/30 10:05:12;;;;;;;6.28;2.50;;;;;;;25.98;44.81;102745.19;5024501;28;20034;-72
2023/09/30 10:07:43;;;;;;;8.68;2.50;;;;;;;27.17;43.27;102737.75;5009082;28;20386;-72
2023/09/30 10:10:14;;;;;;;4.93;2.23;;;;;;;27.03;42.96;102735.78;5028111;28;20041;-72
2023/09/30 10:12:40;;;;;;;6.22;1.80;;;;;;;27.34;43.19;102736.03;5030059;28;20032;-73
2023/09/30 10:15:24;;;;;;;5.20;1.75;;;;;;;26.15;44.66;102721.22;5024854;28;20135;-71
2023/09/30 10:18:00;;;;;;;5.18;1.60;;;;;;;27.16;42.00;102717.25;5022582;28;20025;-72
2023/09/30 10:20:31;;;;;;;8.23;2.13;;;;;;;27.56;41.98;102712.53;5006666;28;20043;-72
2023/09/30 10:23:25;;;;;;;6.47;1.80;;;;;;;26.89;41.93;102714.16;5008533;28;20127;-72
2023/09/30 10:26:15;;;;;;;8.40;1.42;;;;;;;27.36;40.82;102715.41;5026892;28;20374;-72
2023/09/30 10:28:50;;;;;;;6.18;1.50;;;;;;;26.40;43.08;102722.72;5009543;28;20028;-71
2023/09/30 10:31:19;;;;;;;5.35;1.40;;;;;;;27.01;41.21;102732.31;5026125;28;20021;-72
2023/09/30 10:33:59;;;;;;;9.52;2.10;;;;;;;25.74;43.00;102718.56;5010215;28;20032;-71
2023/09/30 10:36:29;;;;;;;4.57;1.30;;;;;;;25.24;44.15;102717.16;5020179;28;20124;-71
2023/09/30 10:38:55;;;;;;;4.13;1.30;;;;;;;26.90;40.73;102713.19;5026253;28;20029;-72
2023/09/30 10:41:45;;;;;;;6.18;1.92;;;;;;;27.29;39.56;102713.94;5008910;28;20382;-72
2023/09/30 10:44:25;;;;;;;11.68;3.13;;;;;;;27.61;39.06;102714.09;4999506;28;20249;-71
2023/09/30 10:47:15;;;;;;;5.13;1.35;;;;;;;27.95;37.46;102728.44;5011244;28;20122;-72
2023/09/30 10:49:40;;;;;;;4.45;1.38;;;;;;;28.53;36.40;102713.59;5002871;28;20029;-72
2023/09/30 10:52:06;;;;;;;5.65;1.95;;;;;;;26.12;40.03;102721.34;5010296;28;20041;-72
2023/09/30 10:54:32;;;;;;;7.53;1.45;;;;;;;25.53;41.30;102718.59;5024729;28;20106;-71
2023/09/30 10:56:59;;;;;;;11.20;1.83;;;;;;;27.46;38.77;102711.25;5014005;28;20516;-72
2023/09/30 10:59:27;;;;;;;3.72;1.13;;;;;;;26.22;39.54;102711.94;5022615;28;20035;-72
2023/09/30 11:01:53;;;;;;;4.05;1.02;;;;;;;27.16;37.83;102719.94;5028014;28;20035;-72
2023/09/30 11:04:19;;;;;;;3.20;1.02;;;;;;;26.30;38.71;102713.41;5011014;28;20029;-72
2023/09/30 11:06:45;;;;;;;5.25;0.95;;;;;;;26.54;37.65;102717.59;5011204;28;20017;-72
2023/09/30 11:09:16;;;;;;;4.97;1.13;;;;;;;27.32;36.55;102708.41;5026421;28;20072;-72
2023/09/30 11:11:54;;;;;;;5.60;1.10;;;;;;;27.44;36.69;102705.13;5028918;28;20022;-78
2023/09/30 11:14:19;;;;;;;6.20;1.40;;;;;;;27.70;37.67;102697.50;5027957;28;20079;-72
2023/09/30 11:16:45;;;;;;;6.97;1.75;;;;;;;27.72;36.39;102700.97;5027595;28;20448;-72
2023/09/30 11:19:11;;;;;;;5.57;1.75;;;;;;;26.74;37.82;102683.59;5027910;28;20361;-71